createdAt,value
2019-03-22T00:03:59.238Z,2.10
2019-03-22T00:09:06.275Z,1.90
2019-03-22T00:14:12.828Z,1.90
2019-03-22T00:19:20.028Z,2.00
2019-03-22T00:24:26.137Z,1.60
2019-03-22T00:29:32.788Z,1.90
2019-03-22T00:34:39.408Z,1.95
2019-03-22T00:39:45.838Z,2.25
2019-03-22T00:44:51.757Z,2.12
2019-03-22T00:49:58.880Z,1.87
2019-03-22T00:55:05.648Z,1.92
2019-03-22T01:00:11.878Z,2.15
2019-03-22T01:05:18.521Z,1.70
2019-03-22T01:10:24.718Z,1.80
2019-03-22T01:15:31.670Z,2.00
2019-03-22T01:20:37.671Z,1.85
2019-03-22T01:25:43.648Z,1.82
2019-03-22T01:30:50.190Z,1.82
2019-03-22T01:35:56.689Z,1.92
2019-03-22T01:41:02.689Z,2.17
2019-03-22T01:46:08.957Z,2.08
2019-03-22T01:51:14.858Z,2.08
2019-03-22T01:56:21.654Z,1.77
2019-03-22T02:01:28.917Z,1.92
2019-03-22T02:06:34.799Z,2.17
2019-03-22T02:11:41.170Z,1.85
2019-03-22T02:16:47.438Z,1.80
2019-03-22T02:21:53.623Z,1.70
2019-03-22T02:27:00.048Z,1.50
2019-03-22T02:32:06.425Z,2.00
2019-03-22T02:37:13.077Z,2.00
2019-03-22T02:42:20.660Z,1.80
2019-03-22T02:47:26.977Z,1.95
2019-03-22T02:52:33.148Z,1.95
2019-03-22T02:57:39.579Z,1.67
2019-03-22T03:02:47.306Z,1.70
2019-03-22T03:07:53.792Z,1.70
2019-03-22T03:12:59.952Z,1.85
2019-03-22T03:18:06.509Z,1.75
2019-03-22T03:23:12.741Z,1.50
2019-03-22T03:28:19.089Z,1.62
2019-03-22T03:33:25.511Z,1.95
2019-03-22T03:38:31.509Z,1.92
2019-03-22T03:43:37.978Z,1.80
2019-03-22T03:48:44.365Z,1.50
2019-03-22T03:53:51.764Z,1.60
2019-03-22T03:58:58.174Z,1.90
2019-03-22T04:04:04.473Z,1.70
2019-03-22T04:09:11.129Z,1.75
2019-03-22T04:14:17.829Z,1.77
2019-03-22T04:19:24.150Z,1.62
2019-03-22T04:24:30.402Z,1.75
2019-03-22T04:29:36.849Z,1.57
2019-03-22T04:34:43.143Z,1.92
2019-03-22T04:39:49.247Z,1.82
2019-03-22T04:44:55.628Z,1.57
2019-03-22T04:50:02.012Z,1.70
2019-03-22T04:55:08.338Z,1.70
2019-03-22T05:00:14.578Z,1.60
2019-03-22T05:05:21.138Z,1.90
2019-03-22T05:10:27.518Z,1.50
2019-03-22T05:15:33.639Z,1.67
2019-03-22T05:20:39.780Z,1.60
2019-03-22T05:25:46.038Z,1.92
2019-03-22T05:31:50.508Z,1.50
2019-03-22T05:36:56.889Z,1.77
2019-03-22T05:42:03.287Z,1.85
2019-03-22T05:47:09.869Z,1.50
2019-03-22T05:52:16.839Z,1.90
2019-03-22T05:57:23.128Z,1.75
2019-03-22T06:02:28.879Z,1.57
2019-03-22T06:07:36.990Z,1.62
2019-03-22T06:12:43.011Z,1.30
2019-03-22T06:17:51.918Z,1.60
2019-03-22T06:22:58.133Z,1.90
2019-03-22T06:28:04.639Z,2.20
2019-03-22T06:33:11.058Z,1.87
2019-03-22T06:38:17.489Z,6.05
2019-03-22T06:43:24.847Z,3.95
2019-03-22T06:48:31.108Z,3.40
2019-03-22T06:53:37.689Z,4.20
2019-03-22T06:58:44.068Z,4.55
2019-03-22T07:03:51.107Z,3.67
2019-03-22T07:08:57.959Z,8.25
2019-03-22T07:14:04.228Z,7.95
2019-03-22T07:19:10.697Z,7.50
2019-03-22T07:24:17.258Z,7.20
2019-03-22T07:29:23.647Z,6.97
2019-03-22T07:34:29.967Z,6.40
2019-03-22T07:39:36.988Z,6.22
2019-03-22T07:44:43.822Z,4.15
2019-03-22T07:49:50.588Z,4.28
2019-03-22T07:54:57.550Z,4.20
2019-03-22T08:00:04.017Z,4.40
2019-03-22T08:05:10.512Z,3.47
2019-03-22T08:10:16.903Z,3.27
2019-03-22T08:15:34.404Z,3.08
2019-03-22T08:20:41.018Z,3.75
2019-03-22T08:25:48.550Z,3.12
2019-03-22T08:30:55.367Z,3.20
2019-03-22T08:36:01.750Z,2.67
2019-03-22T08:41:08.139Z,3.08
2019-03-22T08:46:14.579Z,2.65
2019-03-22T08:51:20.849Z,2.52
2019-03-22T08:56:27.261Z,2.90
2019-03-22T09:01:33.530Z,3.08
2019-03-22T09:06:39.932Z,2.40
2019-03-22T09:11:46.460Z,2.77
2019-03-22T09:16:53.200Z,2.60
2019-03-22T09:21:59.865Z,2.83
2019-03-22T09:27:07.141Z,2.70
2019-03-22T09:32:13.581Z,2.90
2019-03-22T09:37:20.035Z,2.80
2019-03-22T09:42:27.079Z,4.50
2019-03-22T09:47:33.435Z,2.95
2019-03-22T09:52:40.340Z,2.58
2019-03-22T09:57:49.353Z,2.87
2019-03-22T10:02:54.608Z,2.72
2019-03-22T10:08:01.066Z,2.83
2019-03-22T10:13:07.432Z,2.95
2019-03-22T10:18:13.688Z,2.40
2019-03-22T10:23:22.326Z,2.67
2019-03-22T10:28:28.553Z,2.72
2019-03-22T10:33:35.117Z,2.70
2019-03-22T10:38:41.630Z,2.75
2019-03-22T10:43:48.174Z,2.98
2019-03-22T10:48:54.555Z,2.95
2019-03-22T10:54:00.958Z,2.42
2019-03-22T10:59:07.482Z,2.70
2019-03-22T11:04:13.829Z,3.15
2019-03-22T11:09:20.358Z,3.30
2019-03-22T11:14:26.858Z,3.17
2019-03-22T11:19:33.137Z,3.08
2019-03-22T11:24:39.608Z,2.90
2019-03-22T11:29:46.068Z,2.75
2019-03-22T11:34:52.557Z,2.37
2019-03-22T11:39:59.218Z,2.40
2019-03-22T11:45:06.618Z,2.47
2019-03-22T11:50:13.488Z,2.47
2019-03-22T11:55:19.856Z,2.58
2019-03-22T12:00:26.878Z,2.22
2019-03-22T12:05:40.329Z,2.45
2019-03-22T12:10:41.187Z,2.47
2019-03-22T12:15:47.619Z,2.25
2019-03-22T12:20:56.463Z,2.15
2019-03-22T12:26:02.767Z,2.22
2019-03-22T12:31:08.988Z,2.22
2019-03-22T12:36:15.508Z,2.40
2019-03-22T12:41:22.238Z,2.27
2019-03-22T12:46:29.059Z,1.90
2019-03-22T12:51:35.618Z,1.95
2019-03-22T12:56:42.218Z,1.90
2019-03-22T13:01:48.448Z,2.12
2019-03-22T13:06:54.728Z,2.27
2019-03-22T13:12:00.894Z,2.35
2019-03-22T13:17:07.700Z,2.62
2019-03-22T13:22:13.833Z,3.98
2019-03-22T13:27:19.990Z,14.53
2019-03-22T13:32:26.298Z,11.85
2019-03-22T13:37:32.918Z,8.53
2019-03-22T13:42:39.140Z,4.80
2019-03-22T13:47:45.547Z,5.28
2019-03-22T13:52:52.019Z,3.27
2019-03-22T13:57:58.298Z,3.77
2019-03-22T14:03:04.599Z,3.30
2019-03-22T14:08:11.039Z,3.12
2019-03-22T14:13:17.268Z,3.00
2019-03-22T14:18:23.808Z,2.42
2019-03-22T14:23:30.388Z,2.87
2019-03-22T14:28:37.508Z,2.40
2019-03-22T14:33:44.137Z,2.55
2019-03-22T14:38:51.129Z,2.75
2019-03-22T14:43:57.567Z,3.98
2019-03-22T14:49:03.738Z,3.25
2019-03-22T14:54:10.338Z,3.02
2019-03-22T14:59:16.948Z,2.40
2019-03-22T15:04:23.399Z,2.35
2019-03-22T15:09:29.879Z,2.50
2019-03-22T15:14:53.658Z,2.70
2019-03-22T15:20:18.803Z,2.45
2019-03-22T15:25:42.550Z,2.30
2019-03-22T15:31:10.698Z,2.10
2019-03-22T15:36:34.709Z,2.40
2019-03-22T15:41:41.692Z,1.95
2019-03-22T15:46:48.051Z,2.17
2019-03-22T15:51:54.738Z,2.15
2019-03-22T15:57:01.228Z,1.98
2019-03-22T16:02:08.071Z,2.30
2019-03-22T16:07:14.701Z,2.33
2019-03-22T16:12:21.884Z,2.75
2019-03-22T16:17:28.649Z,2.33
2019-03-22T16:22:34.921Z,2.05
2019-03-22T16:27:41.949Z,1.92
2019-03-22T16:32:48.638Z,2.25
2019-03-22T16:37:56.019Z,2.08
2019-03-22T16:43:02.728Z,1.90
2019-03-22T16:48:09.128Z,1.92
2019-03-22T16:53:15.579Z,1.62
2019-03-22T16:58:23.123Z,1.87
2019-03-22T17:03:29.508Z,1.82
2019-03-22T17:08:36.488Z,1.90
2019-03-22T17:13:42.819Z,2.10
2019-03-22T17:18:49.478Z,1.62
2019-03-22T17:23:56.218Z,6.90
2019-03-22T17:29:02.979Z,3.80
2019-03-22T17:34:14.138Z,3.40
2019-03-22T17:39:17.508Z,3.47
2019-03-22T17:44:23.777Z,2.90
2019-03-22T17:49:30.189Z,2.77
2019-03-22T17:54:36.218Z,2.80
2019-03-22T17:59:42.357Z,2.40
2019-03-22T18:04:48.638Z,2.55
2019-03-22T18:09:55.639Z,2.45
2019-03-22T18:15:03.379Z,2.70
2019-03-22T18:20:11.383Z,2.35
2019-03-22T18:25:17.919Z,2.50
2019-03-22T18:30:24.479Z,2.92
2019-03-22T18:35:31.078Z,2.52
2019-03-22T18:40:37.541Z,2.42
2019-03-22T18:45:44.319Z,2.30
2019-03-22T18:50:56.665Z,2.25
2019-03-22T18:55:58.859Z,2.73
2019-03-22T19:01:05.249Z,2.72
2019-03-22T19:06:11.539Z,2.62
2019-03-22T19:11:17.979Z,1.90
2019-03-22T19:16:24.449Z,2.30
2019-03-22T19:21:31.538Z,2.37
2019-03-22T19:26:37.968Z,2.42
2019-03-22T19:31:44.508Z,2.50
2019-03-22T19:36:51.049Z,2.17
2019-03-22T19:41:57.501Z,2.08
2019-03-22T19:47:04.890Z,1.80
2019-03-22T19:52:11.558Z,1.72
2019-03-22T19:57:18.261Z,2.15
2019-03-22T20:02:24.580Z,2.20
2019-03-22T20:07:32.149Z,1.50
2019-03-22T20:12:39.579Z,1.82
2019-03-22T20:17:47.188Z,1.70
2019-03-22T20:22:54.179Z,2.10
2019-03-22T20:28:00.644Z,2.00
2019-03-22T20:33:07.430Z,1.70
2019-03-22T20:38:14.198Z,1.87
2019-03-22T20:43:21.314Z,1.98
2019-03-22T20:48:28.258Z,2.15
2019-03-22T20:53:34.711Z,1.90
2019-03-22T20:58:42.383Z,1.98
2019-03-22T21:03:48.759Z,1.75
2019-03-22T21:08:55.122Z,1.87
2019-03-22T21:14:01.749Z,1.70
2019-03-22T21:19:07.709Z,1.65
2019-03-22T21:24:14.050Z,1.70
2019-03-22T21:29:20.607Z,1.50
2019-03-22T21:34:27.316Z,1.60
2019-03-22T21:39:33.632Z,1.77
2019-03-22T21:44:40.110Z,1.67
2019-03-22T21:49:46.881Z,1.50
2019-03-22T21:54:52.909Z,2.10
2019-03-22T21:59:59.518Z,1.80
2019-03-22T22:05:07.901Z,1.50
2019-03-22T22:10:13.986Z,1.50
2019-03-22T22:15:20.338Z,1.67
2019-03-22T22:20:29.079Z,1.50
2019-03-22T22:25:34.845Z,1.47
2019-03-22T22:30:41.484Z,1.87
2019-03-22T22:35:58.004Z,1.50
2019-03-22T22:40:55.609Z,1.57
2019-03-22T22:46:02.203Z,1.50
2019-03-22T22:51:09.056Z,1.67
2019-03-22T22:56:15.394Z,1.60
2019-03-22T23:01:21.971Z,1.70
2019-03-22T23:06:46.992Z,1.57
2019-03-22T23:11:53.134Z,1.60
2019-03-22T23:16:59.466Z,1.62
2019-03-22T23:22:06.099Z,1.52
2019-03-22T23:27:13.033Z,1.42
2019-03-22T23:32:19.724Z,1.50
2019-03-22T23:37:26.189Z,1.57
2019-03-22T23:42:32.649Z,1.45
2019-03-22T23:47:38.968Z,1.65
2019-03-22T23:52:45.251Z,1.52
2019-03-22T23:57:51.792Z,1.47
